Rock Island, Washington
Current Conditions -  °F | °C
As of 2:55 PM on Tuesday 27 Jan 2015 (Local Time) from KEAT Reporting Station
Overcast Overcast  
Wind Chill: 39°   Ceiling: 500
Heat Index: 39°   Visibility: 10mi
Dew Point: 35°   Wind: 0mph
Humidity: 86%   Direction: NA
Pressure: 30.03"   Gusts: NA
Location:  47.38°N, 120.14°W
Report Text: KEAT 272255Z AUTO 00000KT 10SM OVC005 04/02 A3003 RMK AO2 SLP179 T00390017
Loading
Personal Weather Stations






























Interactive Weather Map New forecast layout! Learn more

10-Day Weather Forecast

Advertisements
Track Severe Weather on mobile